createdAt,value
2019-01-29T00:01:48.194Z,17.07
2019-01-29T00:04:14.647Z,12.40
2019-01-29T00:06:41.142Z,11.23
2019-01-29T00:09:07.668Z,8.63
2019-01-29T00:11:34.139Z,10.47
2019-01-29T00:14:00.691Z,10.23
2019-01-29T00:16:27.153Z,11.50
2019-01-29T00:18:53.513Z,8.80
2019-01-29T00:21:20.018Z,9.77
2019-01-29T00:23:46.461Z,13.60
2019-01-29T00:26:12.822Z,7.57
2019-01-29T00:28:39.270Z,9.40
2019-01-29T00:31:05.739Z,9.10
2019-01-29T00:33:32.111Z,9.60
2019-01-29T00:35:58.589Z,9.40
2019-01-29T00:38:25.037Z,7.87
2019-01-29T00:40:51.614Z,10.47
2019-01-29T00:43:17.972Z,12.67
2019-01-29T00:45:44.343Z,8.60
2019-01-29T00:48:10.687Z,10.13
2019-01-29T00:50:37.234Z,10.00
2019-01-29T00:53:03.807Z,7.00
2019-01-29T00:55:30.278Z,10.00
2019-01-29T00:57:56.872Z,11.70
2019-01-29T01:00:23.425Z,8.97
2019-01-29T01:02:50.186Z,7.17
2019-01-29T01:05:17.038Z,12.17
2019-01-29T01:07:43.495Z,9.00
2019-01-29T01:10:11.842Z,9.97
2019-01-29T01:12:38.265Z,10.57
2019-01-29T01:15:06.563Z,8.97
2019-01-29T01:17:32.964Z,14.83
2019-01-29T01:19:59.441Z,8.30
2019-01-29T01:22:26.007Z,10.63
2019-01-29T01:24:52.531Z,8.47
2019-01-29T01:27:19.130Z,11.23
2019-01-29T01:29:45.576Z,9.13
2019-01-29T01:32:12.342Z,13.83
2019-01-29T01:34:38.789Z,11.57
2019-01-29T01:37:05.232Z,11.70
2019-01-29T01:39:31.694Z,12.43
2019-01-29T01:41:58.145Z,9.07
2019-01-29T01:44:24.611Z,8.57
2019-01-29T01:46:51.171Z,7.37
2019-01-29T01:49:17.635Z,11.40
2019-01-29T01:51:44.197Z,12.97
2019-01-29T01:54:10.650Z,12.33
2019-01-29T01:56:37.010Z,8.40
2019-01-29T01:59:03.489Z,11.67
2019-01-29T02:01:29.936Z,13.47
2019-01-29T02:03:56.505Z,12.17
2019-01-29T02:06:23.059Z,13.83
2019-01-29T02:08:49.525Z,8.77
2019-01-29T02:11:15.968Z,11.00
2019-01-29T02:13:42.483Z,9.53
2019-01-29T02:16:09.030Z,8.23
2019-01-29T02:18:35.615Z,7.73
2019-01-29T02:21:02.053Z,10.00
2019-01-29T02:23:28.552Z,10.00
2019-01-29T02:25:55.127Z,14.87
2019-01-29T02:28:21.497Z,8.53
2019-01-29T02:30:47.864Z,11.63
2019-01-29T02:33:14.381Z,8.33
2019-01-29T02:35:40.847Z,10.23
2019-01-29T02:38:07.234Z,8.80
2019-01-29T02:40:33.803Z,7.53
2019-01-29T02:43:00.255Z,9.53
2019-01-29T02:45:26.854Z,11.20
2019-01-29T02:47:53.303Z,13.03
2019-01-29T02:50:20.005Z,9.37
2019-01-29T02:52:46.350Z,14.83
2019-01-29T02:55:13.423Z,14.23
2019-01-29T02:57:39.879Z,10.60
2019-01-29T03:00:08.264Z,10.53
2019-01-29T03:02:34.730Z,7.07
2019-01-29T03:05:01.193Z,13.63
2019-01-29T03:07:27.740Z,8.17
2019-01-29T03:09:54.107Z,8.13
2019-01-29T03:12:20.561Z,10.90
2019-01-29T03:14:47.164Z,11.33
2019-01-29T03:17:13.749Z,10.37
2019-01-29T03:19:40.183Z,10.27
2019-01-29T03:22:06.766Z,8.60
2019-01-29T03:24:33.238Z,7.60
2019-01-29T03:26:59.703Z,7.77
2019-01-29T03:29:26.167Z,7.90
2019-01-29T03:31:52.688Z,11.37
2019-01-29T03:34:19.153Z,8.97
2019-01-29T03:36:45.743Z,7.13
2019-01-29T03:39:12.294Z,8.17
2019-01-29T03:41:38.776Z,8.27
2019-01-29T03:44:05.237Z,7.90
2019-01-29T03:46:31.810Z,9.20
2019-01-29T03:48:58.259Z,12.33
2019-01-29T03:51:24.851Z,9.17
2019-01-29T03:53:52.826Z,9.90
2019-01-29T03:56:19.297Z,9.10
2019-01-29T03:58:45.857Z,7.80
2019-01-29T04:01:12.432Z,11.30
2019-01-29T04:03:38.887Z,10.97
2019-01-29T04:06:05.354Z,8.70
2019-01-29T04:08:31.915Z,12.87
2019-01-29T04:10:58.466Z,7.63
2019-01-29T04:13:24.937Z,8.07
2019-01-29T04:15:51.427Z,8.17
2019-01-29T04:18:17.894Z,6.73
2019-01-29T04:20:44.365Z,9.97
2019-01-29T04:23:10.831Z,8.20
2019-01-29T04:25:37.391Z,9.27
2019-01-29T04:28:03.892Z,8.30
2019-01-29T04:30:30.334Z,5.47
2019-01-29T04:32:56.970Z,5.80
2019-01-29T04:35:23.426Z,7.70
2019-01-29T04:37:49.892Z,10.53
2019-01-29T04:40:17.341Z,5.63
2019-01-29T04:42:43.817Z,8.97
2019-01-29T04:45:11.462Z,9.77
2019-01-29T04:47:38.130Z,8.03
2019-01-29T04:50:06.088Z,6.03
2019-01-29T04:52:32.546Z,7.27
2019-01-29T04:54:59.013Z,7.87
2019-01-29T04:57:25.564Z,8.17
2019-01-29T04:59:52.137Z,7.57
2019-01-29T05:02:19.108Z,9.57
2019-01-29T05:04:45.587Z,7.50
2019-01-29T05:07:12.034Z,8.67
2019-01-29T05:09:38.517Z,6.60
2019-01-29T05:12:05.071Z,7.90
2019-01-29T05:14:31.640Z,6.43
2019-01-29T05:16:58.082Z,7.33
2019-01-29T05:19:24.458Z,9.67
2019-01-29T05:21:51.007Z,7.20
2019-01-29T05:24:17.487Z,11.17
2019-01-29T05:26:43.928Z,7.37
2019-01-29T05:29:10.401Z,10.93
2019-01-29T05:31:36.901Z,9.40
2019-01-29T05:34:03.482Z,7.47
2019-01-29T05:36:29.928Z,5.90
2019-01-29T05:38:56.401Z,8.30
2019-01-29T05:41:22.851Z,6.73
2019-01-29T05:43:49.319Z,5.70
2019-01-29T05:46:15.771Z,7.40
2019-01-29T05:48:42.319Z,8.53
2019-01-29T05:51:08.906Z,6.83
2019-01-29T05:53:35.307Z,7.87
2019-01-29T05:56:01.982Z,9.23
2019-01-29T05:58:28.423Z,6.13
2019-01-29T06:00:54.921Z,8.47
2019-01-29T06:03:21.365Z,7.97
2019-01-29T06:05:47.929Z,8.97
2019-01-29T06:08:14.279Z,7.27
2019-01-29T06:10:40.677Z,9.80
2019-01-29T06:13:07.153Z,7.83
2019-01-29T06:15:33.712Z,7.70
2019-01-29T06:18:00.273Z,9.43
2019-01-29T06:20:27.961Z,9.87
2019-01-29T06:22:54.403Z,6.83
2019-01-29T06:25:20.896Z,8.10
2019-01-29T06:27:47.272Z,11.37
2019-01-29T06:30:14.718Z,9.43
2019-01-29T06:32:41.222Z,6.50
2019-01-29T06:35:09.073Z,5.67
2019-01-29T06:37:35.561Z,7.37
2019-01-29T06:40:02.429Z,6.93
2019-01-29T06:42:28.902Z,8.00
2019-01-29T06:44:55.506Z,4.83
2019-01-29T06:47:22.079Z,7.00
2019-01-29T06:49:48.525Z,9.63
2019-01-29T06:52:15.105Z,9.07
2019-01-29T06:54:41.580Z,8.27
2019-01-29T06:57:08.064Z,10.67
2019-01-29T06:59:34.423Z,9.20
2019-01-29T07:02:00.808Z,8.27
2019-01-29T07:04:27.364Z,6.67
2019-01-29T07:06:53.822Z,9.00
2019-01-29T07:09:20.271Z,8.70
2019-01-29T07:11:48.650Z,6.63
2019-01-29T07:14:15.090Z,7.93
2019-01-29T07:16:43.501Z,8.23
2019-01-29T07:19:11.848Z,7.80
2019-01-29T07:21:38.325Z,8.67
2019-01-29T07:24:04.795Z,11.63
2019-01-29T07:26:31.276Z,9.70
2019-01-29T07:28:57.829Z,8.30
2019-01-29T07:31:24.285Z,8.20
2019-01-29T07:33:50.901Z,10.07
2019-01-29T07:36:17.520Z,9.10
2019-01-29T07:38:44.001Z,9.47
2019-01-29T07:41:10.373Z,8.37
2019-01-29T07:43:36.960Z,9.83
2019-01-29T07:46:03.402Z,8.57
2019-01-29T07:48:29.880Z,8.80
2019-01-29T07:50:56.439Z,8.20
2019-01-29T07:53:22.996Z,9.00
2019-01-29T07:55:49.355Z,10.50
2019-01-29T07:58:15.919Z,9.93
2019-01-29T08:00:42.420Z,11.57
2019-01-29T08:03:09.042Z,9.67
2019-01-29T08:05:35.599Z,7.80
2019-01-29T08:08:02.058Z,9.33
2019-01-29T08:10:28.431Z,9.70
2019-01-29T08:12:56.537Z,10.27
2019-01-29T08:15:23.180Z,9.83
2019-01-29T08:17:50.178Z,12.23
2019-01-29T08:20:17.042Z,10.10
2019-01-29T08:22:43.702Z,8.67
2019-01-29T08:25:10.287Z,10.70
2019-01-29T08:27:36.849Z,9.23
2019-01-29T08:30:04.943Z,9.67
2019-01-29T08:32:31.460Z,10.30
2019-01-29T08:34:57.931Z,8.80
2019-01-29T08:37:24.379Z,7.67
2019-01-29T08:39:50.942Z,8.87
2019-01-29T08:42:17.305Z,11.50
2019-01-29T08:44:43.883Z,9.30
2019-01-29T08:47:10.319Z,7.83
2019-01-29T08:49:36.701Z,10.30
2019-01-29T08:52:03.269Z,10.30
2019-01-29T08:54:29.865Z,8.83
2019-01-29T08:56:56.319Z,10.13
2019-01-29T08:59:22.778Z,8.40
2019-01-29T09:01:49.397Z,9.20
2019-01-29T09:04:15.759Z,7.60
2019-01-29T09:06:42.302Z,9.23
2019-01-29T09:09:09.111Z,11.43
2019-01-29T09:11:35.554Z,12.87
2019-01-29T09:14:02.203Z,10.27
2019-01-29T09:16:28.671Z,8.13
2019-01-29T09:18:55.138Z,8.70
2019-01-29T09:21:21.495Z,10.53
2019-01-29T09:23:47.955Z,12.33
2019-01-29T09:26:14.323Z,14.80
2019-01-29T09:28:40.867Z,12.40
2019-01-29T09:31:07.347Z,12.37
2019-01-29T09:33:34.033Z,9.43
2019-01-29T09:36:00.423Z,16.00
2019-01-29T09:38:26.889Z,17.27
2019-01-29T09:40:53.354Z,13.07
2019-01-29T09:43:19.899Z,12.63
2019-01-29T09:45:46.382Z,13.80
2019-01-29T09:48:12.838Z,9.80
2019-01-29T09:50:39.314Z,13.83
2019-01-29T09:53:05.871Z,11.13
2019-01-29T09:55:32.339Z,12.73
2019-01-29T09:57:58.802Z,16.37
2019-01-29T10:00:27.151Z,9.40
2019-01-29T10:02:53.771Z,9.80
2019-01-29T10:05:20.320Z,12.53
2019-01-29T10:07:46.787Z,11.83
2019-01-29T10:10:13.242Z,13.10
2019-01-29T10:12:39.614Z,12.40
2019-01-29T10:15:07.891Z,10.10
2019-01-29T10:17:34.583Z,5.90
2019-01-29T10:20:02.624Z,7.73
2019-01-29T10:22:29.421Z,10.20
2019-01-29T10:24:55.875Z,7.20
2019-01-29T10:27:22.354Z,8.30
2019-01-29T10:29:48.828Z,7.50
2019-01-29T10:32:15.230Z,7.77
2019-01-29T10:34:41.896Z,10.13
2019-01-29T10:37:08.364Z,6.07
2019-01-29T10:39:34.736Z,8.97
2019-01-29T10:42:01.222Z,6.13
2019-01-29T10:44:27.677Z,7.77
2019-01-29T10:46:54.144Z,4.53
2019-01-29T10:49:20.613Z,5.73
2019-01-29T10:51:47.085Z,9.37
2019-01-29T10:54:13.535Z,5.60
2019-01-29T10:56:39.984Z,5.67
2019-01-29T10:59:06.343Z,7.10
2019-01-29T11:01:32.805Z,5.43
2019-01-29T11:03:59.271Z,6.07
2019-01-29T11:06:25.719Z,4.80
2019-01-29T11:08:52.193Z,5.03
2019-01-29T11:11:18.636Z,5.40
2019-01-29T11:13:45.117Z,5.27
2019-01-29T11:16:11.577Z,4.50
2019-01-29T11:18:38.139Z,6.37
2019-01-29T11:21:04.898Z,7.83
2019-01-29T11:23:31.454Z,5.10
2019-01-29T11:25:57.917Z,4.80
2019-01-29T11:28:24.481Z,5.20
2019-01-29T11:30:51.049Z,4.40
2019-01-29T11:33:17.538Z,6.57
2019-01-29T11:35:44.117Z,6.10
2019-01-29T11:38:10.686Z,5.50
2019-01-29T11:40:37.171Z,5.60
2019-01-29T11:43:03.611Z,6.57
2019-01-29T11:45:32.060Z,6.73
2019-01-29T11:47:58.734Z,4.57
2019-01-29T11:50:25.323Z,4.43
2019-01-29T11:52:51.874Z,7.73
2019-01-29T11:55:18.272Z,7.53
2019-01-29T11:57:44.715Z,7.00
2019-01-29T12:00:15.628Z,4.00
2019-01-29T12:02:42.182Z,6.80
2019-01-29T12:05:08.902Z,8.07
2019-01-29T12:07:35.346Z,6.67
2019-01-29T12:10:02.825Z,9.43
2019-01-29T12:12:29.269Z,7.03
2019-01-29T12:14:55.739Z,5.60
2019-01-29T12:17:22.074Z,6.97
2019-01-29T12:19:48.570Z,9.70
2019-01-29T12:22:15.116Z,6.90
2019-01-29T12:24:41.679Z,5.33
2019-01-29T12:27:08.134Z,5.67
2019-01-29T12:29:34.485Z,8.10
2019-01-29T12:32:01.046Z,5.73
2019-01-29T12:34:27.426Z,6.83
2019-01-29T12:36:53.886Z,4.37
2019-01-29T12:39:20.255Z,8.87
2019-01-29T12:41:46.857Z,6.70
2019-01-29T12:44:13.313Z,5.87
2019-01-29T12:46:39.691Z,7.60
2019-01-29T12:49:06.172Z,6.53
2019-01-29T12:51:33.546Z,5.80
2019-01-29T12:53:59.995Z,4.23
2019-01-29T12:56:26.502Z,6.83
2019-01-29T12:58:52.959Z,4.40
2019-01-29T13:01:19.540Z,3.83
2019-01-29T13:03:45.997Z,5.67
2019-01-29T13:06:12.423Z,4.00
2019-01-29T13:08:38.881Z,6.67
2019-01-29T13:11:05.463Z,5.93
2019-01-29T13:13:31.843Z,17.60
2019-01-29T13:15:58.212Z,10.20
2019-01-29T13:18:24.767Z,19.43
2019-01-29T13:20:51.243Z,12.30
2019-01-29T13:23:17.799Z,18.03
2019-01-29T13:25:44.273Z,15.33
2019-01-29T13:28:10.836Z,11.33
2019-01-29T13:30:37.275Z,7.83
2019-01-29T13:33:05.190Z,5.50
2019-01-29T13:35:32.734Z,4.00
2019-01-29T13:37:59.424Z,5.37
2019-01-29T13:40:25.871Z,4.60
2019-01-29T13:42:52.330Z,3.57
2019-01-29T13:45:18.987Z,5.10
2019-01-29T13:47:45.449Z,5.00
2019-01-29T13:50:13.799Z,5.23
2019-01-29T13:52:40.367Z,6.50
2019-01-29T13:55:08.727Z,5.30
2019-01-29T13:57:35.293Z,4.60
2019-01-29T14:00:02.139Z,4.43
2019-01-29T14:02:28.498Z,5.30
2019-01-29T14:04:55.058Z,5.80
2019-01-29T14:07:21.727Z,5.67
2019-01-29T14:09:48.180Z,4.53
2019-01-29T14:12:14.662Z,5.33
2019-01-29T14:14:41.015Z,9.03
2019-01-29T14:17:07.406Z,6.33
2019-01-29T14:19:33.861Z,9.90
2019-01-29T14:22:00.440Z,7.20
2019-01-29T14:24:26.883Z,6.33
2019-01-29T14:26:53.335Z,3.57
2019-01-29T14:29:19.813Z,5.00
2019-01-29T14:31:46.181Z,3.83
2019-01-29T14:34:12.706Z,5.47
2019-01-29T14:36:39.091Z,5.87
2019-01-29T14:39:07.558Z,5.10
2019-01-29T14:41:34.007Z,3.23
2019-01-29T14:44:00.424Z,9.17
2019-01-29T14:46:26.979Z,5.60
2019-01-29T14:48:53.680Z,5.93
2019-01-29T14:51:20.124Z,3.50
2019-01-29T14:53:46.738Z,6.67
2019-01-29T14:56:13.265Z,5.37
2019-01-29T14:58:39.727Z,3.93
2019-01-29T15:01:06.578Z,9.10
2019-01-29T15:03:33.239Z,4.53
2019-01-29T15:05:59.712Z,4.83
2019-01-29T15:08:26.179Z,3.77
2019-01-29T15:10:52.750Z,5.67
2019-01-29T15:13:19.331Z,6.10
2019-01-29T15:15:47.779Z,6.90
2019-01-29T15:18:21.972Z,6.50
2019-01-29T15:20:48.440Z,5.57
2019-01-29T15:23:14.887Z,6.00
2019-01-29T15:25:41.282Z,6.03
2019-01-29T15:28:07.824Z,11.20
2019-01-29T15:30:34.435Z,7.07
2019-01-29T15:33:00.814Z,5.27
2019-01-29T15:35:27.311Z,5.57
2019-01-29T15:37:54.695Z,29.20
2019-01-29T15:40:21.543Z,14.97
2019-01-29T15:42:48.412Z,11.30
2019-01-29T15:45:16.799Z,9.70
2019-01-29T15:47:43.558Z,10.67
2019-01-29T15:50:11.727Z,7.03
2019-01-29T15:52:38.117Z,20.23
2019-01-29T15:55:06.487Z,10.70
2019-01-29T15:57:32.934Z,6.63
2019-01-29T15:59:59.306Z,7.33
2019-01-29T16:02:25.850Z,8.07
2019-01-29T16:04:52.426Z,5.93
2019-01-29T16:07:18.973Z,4.87
2019-01-29T16:09:45.594Z,4.30
2019-01-29T16:12:12.034Z,3.87
2019-01-29T16:14:38.478Z,4.03
2019-01-29T16:17:04.950Z,4.63
2019-01-29T16:19:31.505Z,3.90
2019-01-29T16:21:57.867Z,5.87
2019-01-29T16:24:24.314Z,4.90
2019-01-29T16:26:50.782Z,6.00
2019-01-29T16:29:17.339Z,5.63
2019-01-29T16:31:43.907Z,5.80
2019-01-29T16:34:10.394Z,4.23
2019-01-29T16:36:36.865Z,5.13
2019-01-29T16:39:05.113Z,3.53
2019-01-29T16:41:31.604Z,5.17
2019-01-29T16:43:58.022Z,5.13
2019-01-29T16:46:24.591Z,9.60
2019-01-29T16:48:51.144Z,6.87
2019-01-29T16:51:17.530Z,5.10
2019-01-29T16:53:44.099Z,6.17
2019-01-29T16:56:10.554Z,4.00
2019-01-29T16:58:37.008Z,6.40
2019-01-29T17:01:03.662Z,5.57
2019-01-29T17:03:30.135Z,6.57
2019-01-29T17:05:56.484Z,4.43
2019-01-29T17:08:23.055Z,3.80
2019-01-29T17:10:49.503Z,3.07
2019-01-29T17:13:15.966Z,4.30
2019-01-29T17:15:42.562Z,5.77
2019-01-29T17:18:10.215Z,6.80
2019-01-29T17:20:38.459Z,7.30
2019-01-29T17:23:05.620Z,9.67
2019-01-29T17:25:32.071Z,7.97
2019-01-29T17:27:58.544Z,8.27
2019-01-29T17:30:26.710Z,17.13
2019-01-29T17:32:53.136Z,5.40
2019-01-29T17:35:20.383Z,8.93
2019-01-29T17:37:46.872Z,8.20
2019-01-29T17:40:15.238Z,20.50
2019-01-29T17:42:41.705Z,19.90
2019-01-29T17:45:09.959Z,17.57
2019-01-29T17:47:36.419Z,11.33
2019-01-29T17:50:04.783Z,12.00
2019-01-29T17:52:31.541Z,8.10
2019-01-29T17:54:58.007Z,12.13
2019-01-29T17:57:24.464Z,8.20
2019-01-29T17:59:50.935Z,9.00
2019-01-29T18:02:17.483Z,10.70
2019-01-29T18:04:43.964Z,15.53
2019-01-29T18:07:10.411Z,10.47
2019-01-29T18:09:36.786Z,9.23
2019-01-29T18:12:03.158Z,8.23
2019-01-29T18:14:29.550Z,17.17
2019-01-29T18:16:55.994Z,14.60
2019-01-29T18:19:22.484Z,7.33
2019-01-29T18:21:56.731Z,12.30
2019-01-29T18:24:17.195Z,10.53
2019-01-29T18:26:43.743Z,14.57
2019-01-29T18:29:10.209Z,15.57
2019-01-29T18:31:36.659Z,15.23
2019-01-29T18:34:03.329Z,15.87
2019-01-29T18:36:29.846Z,15.37
2019-01-29T18:38:56.405Z,18.87
2019-01-29T18:41:22.926Z,20.10
2019-01-29T18:43:49.519Z,27.77
2019-01-29T18:46:15.972Z,24.27
2019-01-29T18:48:42.365Z,23.67
2019-01-29T18:51:08.899Z,20.07
2019-01-29T18:53:35.342Z,20.60
2019-01-29T18:56:01.845Z,16.70
2019-01-29T18:58:28.195Z,16.10
2019-01-29T19:00:55.070Z,19.70
2019-01-29T19:03:21.779Z,19.77
2019-01-29T19:05:48.398Z,21.33
2019-01-29T19:08:14.920Z,20.13
2019-01-29T19:10:41.523Z,19.30
2019-01-29T19:13:08.036Z,18.80
2019-01-29T19:15:34.631Z,24.10
2019-01-29T19:18:01.300Z,18.60
2019-01-29T19:20:27.779Z,21.17
2019-01-29T19:22:54.255Z,18.53
2019-01-29T19:25:20.742Z,20.10
2019-01-29T19:27:47.307Z,22.20
2019-01-29T19:30:15.721Z,16.70
2019-01-29T19:32:42.276Z,21.53
2019-01-29T19:35:08.761Z,17.30
2019-01-29T19:37:35.256Z,17.60
2019-01-29T19:40:02.439Z,17.00
2019-01-29T19:42:28.896Z,17.53
2019-01-29T19:44:55.442Z,18.27
2019-01-29T19:47:22.021Z,18.83
2019-01-29T19:49:48.583Z,16.87
2019-01-29T19:52:14.952Z,17.93
2019-01-29T19:54:41.412Z,21.60
2019-01-29T19:57:07.995Z,18.27
2019-01-29T19:59:34.351Z,16.83
2019-01-29T20:02:00.923Z,18.77
2019-01-29T20:04:27.379Z,21.67
2019-01-29T20:06:53.858Z,19.53
2019-01-29T20:09:20.245Z,21.97
2019-01-29T20:11:46.612Z,18.57
2019-01-29T20:14:13.160Z,18.47
2019-01-29T20:16:39.619Z,18.47
2019-01-29T20:19:06.091Z,15.27
2019-01-29T20:21:32.535Z,13.93
2019-01-29T20:23:59.105Z,14.23
2019-01-29T20:26:25.563Z,17.03
2019-01-29T20:28:52.054Z,19.63
2019-01-29T20:31:18.604Z,15.67
2019-01-29T20:33:45.105Z,17.27
2019-01-29T20:36:11.551Z,15.73
2019-01-29T20:38:38.027Z,15.40
2019-01-29T20:41:04.578Z,16.10
2019-01-29T20:43:31.059Z,17.00
2019-01-29T20:45:57.602Z,22.13
2019-01-29T20:48:24.095Z,18.47
2019-01-29T20:50:50.641Z,17.20
2019-01-29T20:53:17.249Z,16.00
2019-01-29T20:55:43.625Z,20.33
2019-01-29T20:58:10.104Z,19.30
2019-01-29T21:00:38.463Z,18.27
2019-01-29T21:03:05.035Z,16.10
2019-01-29T21:05:31.579Z,18.43
2019-01-29T21:08:00.496Z,17.83
2019-01-29T21:10:26.457Z,17.23
2019-01-29T21:12:53.068Z,16.03
2019-01-29T21:15:20.687Z,20.23
2019-01-29T21:17:47.173Z,18.03
2019-01-29T21:20:14.739Z,19.13
2019-01-29T21:22:41.282Z,18.83
2019-01-29T21:25:07.946Z,17.90
2019-01-29T21:27:34.512Z,21.00
2019-01-29T21:30:01.125Z,22.97
2019-01-29T21:32:27.733Z,22.73
2019-01-29T21:34:56.811Z,19.33
2019-01-29T21:37:23.590Z,18.73
2019-01-29T21:39:50.238Z,20.70
2019-01-29T21:42:16.968Z,20.50
2019-01-29T21:44:43.668Z,15.00
2019-01-29T21:47:13.355Z,19.70
2019-01-29T21:49:42.644Z,21.83
2019-01-29T21:52:11.261Z,25.17
2019-01-29T21:54:37.910Z,18.27
2019-01-29T21:57:04.468Z,20.23
2019-01-29T21:59:31.037Z,18.53
2019-01-29T22:01:57.591Z,23.83
2019-01-29T22:04:24.242Z,20.30
2019-01-29T22:06:52.772Z,23.30
2019-01-29T22:09:19.364Z,24.13
2019-01-29T22:11:45.807Z,23.20
2019-01-29T22:14:12.423Z,22.63
2019-01-29T22:16:39.049Z,23.47
2019-01-29T22:19:05.599Z,26.17
2019-01-29T22:21:32.427Z,21.80
2019-01-29T22:23:58.994Z,25.87
2019-01-29T22:26:25.590Z,22.03
2019-01-29T22:28:53.970Z,26.37
2019-01-29T22:31:20.701Z,20.90
2019-01-29T22:33:47.412Z,24.90
2019-01-29T22:36:13.958Z,25.57
2019-01-29T22:38:40.981Z,23.63
2019-01-29T22:41:07.480Z,23.97
2019-01-29T22:43:33.968Z,28.33
2019-01-29T22:46:00.416Z,24.80
2019-01-29T22:48:26.783Z,29.57
2019-01-29T22:50:55.149Z,24.80
2019-01-29T22:53:21.955Z,25.67
2019-01-29T22:55:48.494Z,27.47
2019-01-29T22:58:15.057Z,25.73
2019-01-29T23:00:43.730Z,24.43
2019-01-29T23:03:10.119Z,25.00
2019-01-29T23:05:37.941Z,28.87
2019-01-29T23:08:04.558Z,28.33
2019-01-29T23:10:31.045Z,27.97
2019-01-29T23:12:57.515Z,26.10
2019-01-29T23:15:24.080Z,22.80
2019-01-29T23:17:52.955Z,25.90
2019-01-29T23:20:19.290Z,30.40
2019-01-29T23:22:45.957Z,27.83
2019-01-29T23:25:12.423Z,23.87
2019-01-29T23:27:39.232Z,24.73
2019-01-29T23:30:07.644Z,30.73
2019-01-29T23:32:34.028Z,24.97
2019-01-29T23:35:00.440Z,24.93
2019-01-29T23:37:26.923Z,30.47
2019-01-29T23:39:53.398Z,26.30
2019-01-29T23:42:23.048Z,24.67
2019-01-29T23:44:52.632Z,26.23
2019-01-29T23:47:19.131Z,24.73
2019-01-29T23:49:45.500Z,27.47
2019-01-29T23:52:11.955Z,25.87
2019-01-29T23:54:38.429Z,24.57
2019-01-29T23:57:04.840Z,28.03
2019-01-29T23:59:33.274Z,25.90
